Observation data for Memphis on 08/20/2019      Previous  Date       Current Mesonet Observations  Soil Data  Daily Summary Page  Observations in Plain Language
KMES 200500Z 12004KT 29/18 A2999 RMK A01 T02930175  RH  052%=      5-min Rain = 0
KMES 200505Z 12004KT 29/18 A2999 RMK A01 T02900176  RH  053%=      5-min Rain = 0
KMES 200510Z 12004KT 29/18 A2999 RMK A01 T02880177  RH  054%=      5-min Rain = 0
KMES 200515Z 13002KT 29/18 A30 RMK A01 T02870177  RH  054%=      5-min Rain = 0
KMES 200520Z 14001KT 29/18 A30 RMK A01 T02850177  RH  054%=      5-min Rain = 0
KMES 200525Z 11000KT 28/18 A30 RMK A01 T02840176  RH  055%=      5-min Rain = 0
KMES 200530Z 12001KT 28/18 A30 RMK A01 T02830177  RH  055%=      5-min Rain = 0
KMES 200535Z 14001KT 28/18 A30 RMK A01 T02820177  RH  056%=      5-min Rain = 0
KMES 200540Z 15001KT 28/18 A30 RMK A01 T02800177  RH  056%=      5-min Rain = 0
KMES 200545Z 14002KT 28/18 A30 RMK A01 T02790178  RH  057%=      5-min Rain = 0
KMES 200550Z 13003KT 28/18 A30 RMK A01 T02790176  RH  056%=      5-min Rain = 0
KMES 200555Z 12003KT 28/18 A30 RMK A01 T02790176  RH  056%=      5-min Rain = 0
KMES 200600Z 12002KT 28/18 A3001 RMK A01 T02780177  RH  057%=      5-min Rain = 0
KMES 200605Z 14002KT 28/18 A3001 RMK A01 T02770176  RH  057%=      5-min Rain = 0
KMES 200610Z 13003KT 28/18 A3001 RMK A01 T02760177  RH  058%=      5-min Rain = 0
KMES 200615Z 13004KT 28/18 A3001 RMK A01 T02760176  RH  057%=      5-min Rain = 0
KMES 200620Z 12005KT 28/18 A3001 RMK A01 T02750179  RH  058%=      5-min Rain = 0
KMES 200625Z 12005KT 28/18 A3001 RMK A01 T02750177  RH  058%=      5-min Rain = 0
KMES 200630Z 13004KT 28/18 A3001 RMK A01 T02750177  RH  058%=      5-min Rain = 0
KMES 200635Z 13004KT 27/18 A3001 RMK A01 T02740178  RH  059%=      5-min Rain = 0
KMES 200640Z 13004KT 27/18 A3001 RMK A01 T02740178  RH  059%=      5-min Rain = 0
KMES 200645Z 14004KT 27/18 A3001 RMK A01 T02730178  RH  059%=      5-min Rain = 0
KMES 200650Z 13004KT 27/18 A3001 RMK A01 T02740177  RH  059%=      5-min Rain = 0
KMES 200655Z 13004KT 27/18 A3001 RMK A01 T02730179  RH  059%=      5-min Rain = 0
KMES 200700Z 13004KT 27/18 A3001 RMK A01 T02730178  RH  059%=      5-min Rain = 0
KMES 200705Z 13003KT 27/18 A3001 RMK A01 T02730178  RH  059%=      5-min Rain = 0
KMES 200710Z 12002KT 27/18 A3001 RMK A01 T02720178  RH  060%=      5-min Rain = 0
KMES 200715Z 11002KT 27/18 A3001 RMK A01 T02710178  RH  060%=      5-min Rain = 0
KMES 200720Z 11002KT 27/18 A3001 RMK A01 T02690178  RH  061%=      5-min Rain = 0
KMES 200725Z 12002KT 27/18 A3001 RMK A01 T02670178  RH  061%=      5-min Rain = 0
KMES 200730Z 13002KT 27/18 A3001 RMK A01 T02650178  RH  062%=      5-min Rain = 0
KMES 200735Z 14002KT 26/18 A3001 RMK A01 T02640179  RH  063%=      5-min Rain = 0
KMES 200740Z 13002KT 26/18 A3001 RMK A01 T02640180  RH  063%=      5-min Rain = 0
KMES 200745Z 13002KT 26/18 A3001 RMK A01 T02630181  RH  064%=      5-min Rain = 0
KMES 200750Z 12003KT 26/18 A3001 RMK A01 T02610182  RH  065%=      5-min Rain = 0
KMES 200755Z 13003KT 26/18 A3001 RMK A01 T02590183  RH  066%=      5-min Rain = 0
KMES 200800Z 13003KT 26/18 A3001 RMK A01 T02580184  RH  067%=      5-min Rain = 0
KMES 200805Z 14001KT 26/18 A3001 RMK A01 T02570182  RH  066%=      5-min Rain = 0
KMES 200810Z 17001KT 26/18 A3001 RMK A01 T02570181  RH  066%=      5-min Rain = 0
KMES 200815Z 14000KT 26/18 A3001 RMK A01 T02580184  RH  067%=      5-min Rain = 0
KMES 200820Z 34000KT 25/19 A3001 RMK A01 T02530187  RH  071%=      5-min Rain = 0
KMES 200825Z 33002KT 25/19 A3001 RMK A01 T02470186  RH  073%=      5-min Rain = 0
KMES 200830Z 32002KT 24/19 A3002 RMK A01 T02430186  RH  074%=      5-min Rain = 0
KMES 200835Z 32002KT 24/19 A3002 RMK A01 T02420186  RH  075%=      5-min Rain = 0
KMES 200840Z 32002KT 24/19 A3002 RMK A01 T02410186  RH  075%=      5-min Rain = 0
KMES 200845Z 31002KT 24/19 A3002 RMK A01 T02410187  RH  076%=      5-min Rain = 0
KMES 200850Z 30002KT 24/19 A3002 RMK A01 T02420188  RH  076%=      5-min Rain = 0
KMES 200855Z 32002KT 24/19 A3002 RMK A01 T02430187  RH  075%=      5-min Rain = 0
KMES 200900Z 33001KT 24/19 A3002 RMK A01 T02430188  RH  075%=      5-min Rain = 0
KMES 200905Z 00000KT 24/19 A3002 RMK A01 T02410187  RH  076%=      5-min Rain = 0
KMES 200910Z 33001KT 24/19 A3002 RMK A01 T02390187  RH  077%=      5-min Rain = 0
KMES 200915Z 35001KT 24/19 A3002 RMK A01 T02390187  RH  077%=      5-min Rain = 0
KMES 200920Z 35001KT 24/19 A3002 RMK A01 T02380187  RH  077%=      5-min Rain = 0
KMES 200925Z 00001KT 24/19 A3002 RMK A01 T02370188  RH  078%=      5-min Rain = 0
KMES 200930Z 00001KT 24/19 A3002 RMK A01 T02360188  RH  079%=      5-min Rain = 0
KMES 200935Z 06001KT 24/19 A3002 RMK A01 T02360190  RH  080%=      5-min Rain = 0
KMES 200940Z 09002KT 24/19 A3002 RMK A01 T02350191  RH  080%=      5-min Rain = 0
KMES 200945Z 09002KT 23/19 A3002 RMK A01 T02340191  RH  081%=      5-min Rain = 0
KMES 200950Z 10002KT 23/19 A3001 RMK A01 T02330192  RH  082%=      5-min Rain = 0
KMES 200955Z 10002KT 23/19 A3001 RMK A01 T02330192  RH  082%=      5-min Rain = 0
KMES 201000Z 10003KT 23/19 A3001 RMK A01 T02320191  RH  082%=      5-min Rain = 0
KMES 201005Z 10002KT 23/19 A3001 RMK A01 T02310191  RH  082%=      5-min Rain = 0
KMES 201010Z 10001KT 23/19 A3002 RMK A01 T02310190  RH  082%=      5-min Rain = 0
KMES 201015Z 00000KT 23/19 A3002 RMK A01 T02320192  RH  083%=      5-min Rain = 0
KMES 201020Z 18000KT 23/19 A3002 RMK A01 T02340192  RH  082%=      5-min Rain = 0
KMES 201025Z 15001KT 24/19 A3002 RMK A01 T02350191  RH  081%=      5-min Rain = 0
KMES 201030Z 15001KT 24/19 A3002 RMK A01 T02350192  RH  082%=      5-min Rain = 0
KMES 201035Z 13002KT 23/19 A3002 RMK A01 T02320191  RH  082%=      5-min Rain = 0
KMES 201040Z 13002KT 23/19 A3002 RMK A01 T02300191  RH  083%=      5-min Rain = 0
KMES 201045Z 13002KT 23/19 A3002 RMK A01 T02280191  RH  084%=      5-min Rain = 0
KMES 201050Z 17001KT 23/19 A3002 RMK A01 T02290191  RH  084%=      5-min Rain = 0
KMES 201055Z 20001KT 23/19 A3002 RMK A01 T02310192  RH  083%=      5-min Rain = 0
KMES 201100Z 17001KT 23/19 A3002 RMK A01 T02320190  RH  082%=      5-min Rain = 0
KMES 201105Z 18001KT 23/19 A3002 RMK A01 T02310188  RH  081%=      5-min Rain = 0
KMES 201110Z 19000KT 23/19 A3002 RMK A01 T02300188  RH  082%=      5-min Rain = 0
KMES 201115Z 00000KT 23/19 A3002 RMK A01 T02270186  RH  082%=      5-min Rain = 0
KMES 201120Z 00000KT 22/19 A3002 RMK A01 T02230186  RH  084%=      5-min Rain = 0
KMES 201125Z 05001KT 22/19 A3003 RMK A01 T02210186  RH  085%=      5-min Rain = 0
KMES 201130Z 03001KT 22/19 A3003 RMK A01 T02200187  RH  086%=      5-min Rain = 0
KMES 201135Z 04002KT 22/19 A3003 RMK A01 T02190187  RH  086%=      5-min Rain = 0
KMES 201140Z 04002KT 22/19 A3003 RMK A01 T02190186  RH  086%=      5-min Rain = 0
KMES 201145Z 04002KT 22/19 A3003 RMK A01 T02200188  RH  087%=      5-min Rain = 0
KMES 201150Z 06001KT 22/19 A3003 RMK A01 T02210189  RH  086%=      5-min Rain = 0
KMES 201155Z 36000KT 22/19 A3003 RMK A01 T02220189  RH  086%=      5-min Rain = 0
KMES 201200Z 02000KT 22/19 A3004 RMK A01 T02230190  RH  086%=      5-min Rain = 0
KMES 201205Z 02000KT 23/19 A3004 RMK A01 T02250190  RH  085%=      5-min Rain = 0
KMES 201210Z 11000KT 23/19 A3004 RMK A01 T02250190  RH  085%=      5-min Rain = 0
KMES 201215Z 12001KT 23/19 A3004 RMK A01 T02250189  RH  085%=      5-min Rain = 0
KMES 201220Z 31000KT 23/19 A3004 RMK A01 T02250190  RH  085%=      5-min Rain = 0
KMES 201225Z 30001KT 23/19 A3004 RMK A01 T02250190  RH  085%=      5-min Rain = 0
KMES 201230Z 24001KT 22/19 A3004 RMK A01 T02240188  RH  085%=      5-min Rain = 0
KMES 201235Z 20002KT 23/19 A3004 RMK A01 T02260188  RH  084%=      5-min Rain = 0
KMES 201240Z 17002KT 23/19 A3004 RMK A01 T02280188  RH  082%=      5-min Rain = 0
KMES 201245Z 17001KT 23/19 A3004 RMK A01 T02310190  RH  082%=      5-min Rain = 0
KMES 201250Z 16001KT 24/19 A3004 RMK A01 T02350194  RH  082%=      5-min Rain = 0
KMES 201255Z 19001KT 24/19 A3004 RMK A01 T02380194  RH  081%=      5-min Rain = 0
KMES 201300Z 17001KT 24/19 A3004 RMK A01 T02400194  RH  080%=      5-min Rain = 0
KMES 201305Z 18001KT 24/19 A3004 RMK A01 T02420191  RH  078%=      5-min Rain = 0
KMES 201310Z 19001KT 24/19 A3004 RMK A01 T02440190  RH  076%=      5-min Rain = 0
KMES 201315Z 20001KT 25/19 A3004 RMK A01 T02460190  RH  075%=      5-min Rain = 0
KMES 201320Z 19001KT 25/19 A3004 RMK A01 T02490189  RH  073%=      5-min Rain = 0
KMES 201325Z 16001KT 25/19 A3004 RMK A01 T02520188  RH  072%=      5-min Rain = 0
KMES 201330Z 13003KT 26/19 A3005 RMK A01 T02560188  RH  070%=      5-min Rain = 0
KMES 201335Z 13003KT 26/19 A3005 RMK A01 T02590187  RH  068%=      5-min Rain = 0
KMES 201340Z 15002KT 26/19 A3005 RMK A01 T02610185  RH  066%=      5-min Rain = 0
KMES 201345Z 14001KT 27/19 A3005 RMK A01 T02650186  RH  065%=      5-min Rain = 0
KMES 201350Z 14002KT 27/19 A3005 RMK A01 T02690187  RH  064%=      5-min Rain = 0
KMES 201355Z 12002KT 27/19 A3005 RMK A01 T02730188  RH  063%=      5-min Rain = 0
KMES 201400Z 12002KT 28/19 A3005 RMK A01 T02750187  RH  062%=      5-min Rain = 0
KMES 201405Z 12003KT 28/19 A3005 RMK A01 T02770186  RH  061%=      5-min Rain = 0
KMES 201410Z 13002KT 28/19 A3005 RMK A01 T02790186  RH  060%=      5-min Rain = 0
KMES 201415Z 15002KT 28/19 A3005 RMK A01 T02830187  RH  059%=      5-min Rain = 0
KMES 201420Z 15002KT 29/18 A3005 RMK A01 T02870184  RH  057%=      5-min Rain = 0
KMES 201425Z 17002KT 29/19 A3005 RMK A01 T02900185  RH  056%=      5-min Rain = 0
KMES 201430Z 19003KT 29/18 A3005 RMK A01 T02920184  RH  055%=      5-min Rain = 0
KMES 201435Z 20003KT 29/18 A3005 RMK A01 T02940182  RH  054%=      5-min Rain = 0
KMES 201440Z 23005KT 30/18 A3005 RMK A01 T02970178  RH  051%=      5-min Rain = 0
KMES 201445Z 22006KT 30/17 A3005 RMK A01 T02990174  RH  049%=      5-min Rain = 0
KMES 201450Z 21007KT 30/17 A3005 RMK A01 T02990174  RH  049%=      5-min Rain = 0
KMES 201455Z 20006KT 30/17 A3005 RMK A01 T03000173  RH  049%=      5-min Rain = 0
KMES 201500Z 21007KT 30/17 A3005 RMK A01 T03010174  RH  049%=      5-min Rain = 0
KMES 201505Z 20008KT 30/17 A3005 RMK A01 T03030174  RH  048%=      5-min Rain = 0
KMES 201510Z 20007KT 30/18 A3005 RMK A01 T03030175  RH  049%=      5-min Rain = 0
KMES 201515Z 22008KT 31/17 A3005 RMK A01 T03050174  RH  048%=      5-min Rain = 0
KMES 201520Z 21007KT 31/18 A3005 RMK A01 T03070175  RH  048%=      5-min Rain = 0
KMES 201525Z 21006KT 31/18 A3005 RMK A01 T03070177  RH  048%=      5-min Rain = 0
KMES 201530Z 20007KT 31/18 A3005 RMK A01 T03100175  RH  047%=      5-min Rain = 0
KMES 201535Z 20006KT 31/18 A3006 RMK A01 T03130176  RH  046%=      5-min Rain = 0
KMES 201540Z 20005G10KT 32/18 A3006 RMK A01 T03170176  RH  045%=      5-min Rain = 0
KMES 201545Z 20007KT 32/18 A3006 RMK A01 T03200175  RH  044%=      5-min Rain = 0
KMES 201550Z 20007KT 32/18 A3006 RMK A01 T03210175  RH  044%=      5-min Rain = 0
KMES 201555Z 21007KT 32/18 A3006 RMK A01 T03220177  RH  044%=      5-min Rain = 0
KMES 201600Z 19006KT 32/18 A3006 RMK A01 T03240175  RH  043%=      5-min Rain = 0
KMES 201605Z 20007KT 33/17 A3006 RMK A01 T03260174  RH  043%=      5-min Rain = 0
KMES 201610Z 21007KT 33/17 A3006 RMK A01 T03280174  RH  042%=      5-min Rain = 0
KMES 201615Z 21007KT 33/17 A3005 RMK A01 T03290174  RH  042%=      5-min Rain = 0
KMES 201620Z 22006KT 33/17 A3005 RMK A01 T03330174  RH  041%=      5-min Rain = 0
KMES 201625Z 21007KT 33/17 A3005 RMK A01 T03340173  RH  040%=      5-min Rain = 0
KMES 201630Z 22006KT 34/17 A3005 RMK A01 T03360173  RH  040%=      5-min Rain = 0
KMES 201635Z 22008KT 34/17 A3005 RMK A01 T03390169  RH  038%=      5-min Rain = 0
KMES 201640Z 22007KT 34/17 A3005 RMK A01 T03400169  RH  038%=      5-min Rain = 0
KMES 201645Z 20006KT 34/17 A3005 RMK A01 T03410169  RH  038%=      5-min Rain = 0
KMES 201650Z 21006G11KT 35/17 A3005 RMK A01 T03450167  RH  036%=      5-min Rain = 0
KMES 201655Z 21005KT 35/17 A3005 RMK A01 T03470165  RH  036%=      5-min Rain = 0
KMES 201700Z 20007KT 35/17 A3005 RMK A01 T03490165  RH  035%=      5-min Rain = 0
KMES 201705Z 21007G12KT 35/17 A3005 RMK A01 T03500166  RH  035%=      5-min Rain = 0
KMES 201710Z 20007KT 35/16 A3005 RMK A01 T03510163  RH  034%=      5-min Rain = 0
KMES 201715Z 18007KT 35/16 A3005 RMK A01 T03530160  RH  033%=      5-min Rain = 0
KMES 201720Z 20007G12KT 35/16 A3005 RMK A01 T03530161  RH  034%=      5-min Rain = 0
KMES 201725Z 20007KT 36/16 A3005 RMK A01 T03550160  RH  033%=      5-min Rain = 0
KMES 201730Z 20006KT 36/16 A3005 RMK A01 T03560158  RH  032%=      5-min Rain = 0
KMES 201735Z 20005KT 36/15 A3004 RMK A01 T03570154  RH  031%=      5-min Rain = 0
KMES 201740Z 21006G11KT 36/16 A3004 RMK A01 T03580155  RH  031%=      5-min Rain = 0
KMES 201745Z 18005KT 36/16 A3004 RMK A01 T03620159  RH  031%=      5-min Rain = 0
KMES 201750Z 20005G10KT 37/16 A3004 RMK A01 T03670158  RH  030%=      5-min Rain = 0
KMES 201755Z 21006KT 37/16 A3004 RMK A01 T03670160  RH  031%=      5-min Rain = 0
KMES 201800Z 22005KT 37/15 A3004 RMK A01 T03660154  RH  030%=      5-min Rain = 0
KMES 201805Z 21005G12KT 36/15 A3004 RMK A01 T03620153  RH  030%=      5-min Rain = 0
KMES 201810Z 22005G10KT 36/15 A3004 RMK A01 T03620154  RH  030%=      5-min Rain = 0
KMES 201815Z 25002KT 36/16 A3004 RMK A01 T03640156  RH  031%=      5-min Rain = 0
KMES 201820Z 24006KT 37/15 A3004 RMK A01 T03650152  RH  030%=      5-min Rain = 0
KMES 201825Z 21006KT 37/16 A3004 RMK A01 T03660155  RH  030%=      5-min Rain = 0
KMES 201830Z 22006KT 37/15 A3004 RMK A01 T03680152  RH  029%=      5-min Rain = 0
KMES 201835Z 23006G11KT 37/15 A3003 RMK A01 T03700151  RH  029%=      5-min Rain = 0
KMES 201840Z 23010G15KT 37/15 A3003 RMK A01 T03700149  RH  028%=      5-min Rain = 0
KMES 201845Z 21009G17KT 37/15 A3003 RMK A01 T03740151  RH  028%=      5-min Rain = 0
KMES 201850Z 22007KT 37/15 A3003 RMK A01 T03710149  RH  028%=      5-min Rain = 0
KMES 201855Z 24007KT 37/15 A3003 RMK A01 T03690150  RH  028%=      5-min Rain = 0
KMES 201900Z 24007G13KT 37/15 A3002 RMK A01 T03710149  RH  028%=      5-min Rain = 0
KMES 201905Z 21005KT 37/15 A3002 RMK A01 T03740152  RH  028%=      5-min Rain = 0
KMES 201910Z 15004KT 38/15 A3003 RMK A01 T03780149  RH  027%=      5-min Rain = 0
KMES 201915Z 13004G15KT 38/15 A3002 RMK A01 T03790149  RH  027%=      5-min Rain = 0
KMES 201920Z 18009G15KT 38/14 A3002 RMK A01 T03800140  RH  025%=      5-min Rain = 0
KMES 201925Z 16004KT 38/14 A3002 RMK A01 T03800138  RH  025%=      5-min Rain = 0
KMES 201930Z 15008G13KT 38/14 A3002 RMK A01 T03810141  RH  025%=      5-min Rain = 0
KMES 201935Z 13008KT 38/15 A3001 RMK A01 T03820145  RH  026%=      5-min Rain = 0
KMES 201940Z 13009G14KT 39/15 A3001 RMK A01 T03850149  RH  026%=      5-min Rain = 0
KMES 201945Z 14007G15KT 38/15 A3001 RMK A01 T03820148  RH  026%=      5-min Rain = 0
KMES 201950Z 13010G15KT 38/15 A3001 RMK A01 T03840146  RH  026%=      5-min Rain = 0
KMES 201955Z 14010KT 39/14 A3001 RMK A01 T03850143  RH  025%=      5-min Rain = 0
KMES 202000Z 13008G15KT 38/14 A3001 RMK A01 T03830143  RH  025%=      5-min Rain = 0
KMES 202005Z 12010G15KT 38/14 A30 RMK A01 T03810144  RH  026%=      5-min Rain = 0
KMES 202010Z 13013G18KT 38/14 A30 RMK A01 T03840144  RH  025%=      5-min Rain = 0
KMES 202015Z 13009G14KT 38/15 A30 RMK A01 T03820145  RH  026%=      5-min Rain = 0
KMES 202020Z 12010G15KT 39/15 A30 RMK A01 T03860147  RH  026%=      5-min Rain = 0
KMES 202025Z 12012G17KT 39/15 A30 RMK A01 T03870145  RH  025%=      5-min Rain = 0
KMES 202030Z 11011G18KT 38/14 A2999 RMK A01 T03840142  RH  025%=      5-min Rain = 0
KMES 202035Z 13013KT 39/14 A2999 RMK A01 T03850141  RH  025%=      5-min Rain = 0
KMES 202040Z 12011KT 38/14 A2999 RMK A01 T03840142  RH  025%=      5-min Rain = 0
KMES 202045Z 12012G18KT 38/14 A2999 RMK A01 T03840142  RH  025%=      5-min Rain = 0
KMES 202050Z 14009G16KT 39/14 A2999 RMK A01 T03870143  RH  025%=      5-min Rain = 0
KMES 202055Z 14012KT 39/14 A2998 RMK A01 T03890141  RH  024%=      5-min Rain = 0
KMES 202100Z 14009G15KT 39/14 A2998 RMK A01 T03860141  RH  025%=      5-min Rain = 0
KMES 202105Z 13008G14KT 39/14 A2998 RMK A01 T03880140  RH  024%=      5-min Rain = 0
KMES 202110Z 13010KT 39/14 A2998 RMK A01 T03870143  RH  025%=      5-min Rain = 0
KMES 202115Z 13009G16KT 39/14 A2998 RMK A01 T03870141  RH  024%=      5-min Rain = 0
KMES 202120Z 14012G17KT 39/14 A2997 RMK A01 T03900142  RH  024%=      5-min Rain = 0
KMES 202125Z 13011G16KT 39/14 A2997 RMK A01 T03890144  RH  025%=      5-min Rain = 0
KMES 202130Z 13011KT 39/15 A2997 RMK A01 T03890146  RH  025%=      5-min Rain = 0
KMES 202135Z 15011G18KT 39/14 A2997 RMK A01 T03890143  RH  025%=      5-min Rain = 0
KMES 202140Z 13011G17KT 39/15 A2997 RMK A01 T03870146  RH  025%=      5-min Rain = 0
KMES 202145Z 12011G16KT 39/15 A2997 RMK A01 T03870146  RH  025%=      5-min Rain = 0
KMES 202150Z 13015G20KT 39/15 A2996 RMK A01 T03860145  RH  025%=      5-min Rain = 0
KMES 202155Z 13012G17KT 39/15 A2996 RMK A01 T03860147  RH  025%=      5-min Rain = 0
KMES 202200Z 12012G18KT 39/14 A2996 RMK A01 T03860144  RH  025%=      5-min Rain = 0
KMES 202205Z 14012G17KT 39/14 A2996 RMK A01 T03860143  RH  025%=      5-min Rain = 0
KMES 202210Z 13011KT 39/14 A2996 RMK A01 T03860144  RH  025%=      5-min Rain = 0
KMES 202215Z 14011G17KT 39/14 A2996 RMK A01 T03850142  RH  025%=      5-min Rain = 0
KMES 202220Z 13011KT 39/14 A2996 RMK A01 T03860142  RH  025%=      5-min Rain = 0
KMES 202225Z 14012G19KT 39/14 A2996 RMK A01 T03850141  RH  025%=      5-min Rain = 0
KMES 202230Z 13013KT 39/14 A2996 RMK A01 T03850139  RH  024%=      5-min Rain = 0
KMES 202235Z 13012KT 39/14 A2996 RMK A01 T03860141  RH  024%=      5-min Rain = 0
KMES 202240Z 14013G20KT 39/14 A2996 RMK A01 T03850137  RH  024%=      5-min Rain = 0
KMES 202245Z 14013G18KT 38/14 A2996 RMK A01 T03820137  RH  024%=      5-min Rain = 0
KMES 202250Z 13012KT 38/14 A2996 RMK A01 T03760136  RH  025%=      5-min Rain = 0
KMES 202255Z 13013G18KT 37/13 A2996 RMK A01 T03730133  RH  025%=      5-min Rain = 0
KMES 202300Z 13012G17KT 37/13 A2996 RMK A01 T03700133  RH  025%=      5-min Rain = 0
KMES 202305Z 13011KT 37/13 A2996 RMK A01 T03680133  RH  025%=      5-min Rain = 0
KMES 202310Z 13011KT 37/13 A2996 RMK A01 T03670130  RH  025%=      5-min Rain = 0
KMES 202315Z 13011KT 37/13 A2996 RMK A01 T03660129  RH  025%=      5-min Rain = 0
KMES 202320Z 13010KT 37/13 A2996 RMK A01 T03650130  RH  025%=      5-min Rain = 0
KMES 202325Z 13010G15KT 36/13 A2996 RMK A01 T03640129  RH  025%=      5-min Rain = 0
KMES 202330Z 13009KT 36/13 A2996 RMK A01 T03640131  RH  026%=      5-min Rain = 0
KMES 202335Z 13008KT 36/14 A2996 RMK A01 T03620135  RH  027%=      5-min Rain = 0
KMES 202340Z 13008KT 36/14 A2996 RMK A01 T03600138  RH  028%=      5-min Rain = 0
KMES 202345Z 13008KT 36/14 A2996 RMK A01 T03590139  RH  028%=      5-min Rain = 0
KMES 202350Z 14007KT 36/14 A2996 RMK A01 T03580139  RH  028%=      5-min Rain = 0
KMES 202355Z 14007KT 36/14 A2996 RMK A01 T03570141  RH  029%=      5-min Rain = 0
KMES 210000Z 15006KT 36/14 A2996 RMK A01 T03550143  RH  029%=      5-min Rain = 0
KMES 210005Z 16006KT 35/15 A2996 RMK A01 T03520145  RH  030%=      5-min Rain = 0
KMES 210010Z 15006KT 35/15 A2996 RMK A01 T03500145  RH  031%=      5-min Rain = 0
KMES 210015Z 15005KT 35/14 A2996 RMK A01 T03490144  RH  031%=      5-min Rain = 0
KMES 210020Z 15006KT 35/14 A2996 RMK A01 T03480144  RH  031%=      5-min Rain = 0
KMES 210025Z 15006KT 35/14 A2996 RMK A01 T03470144  RH  031%=      5-min Rain = 0
KMES 210030Z 15006KT 35/14 A2996 RMK A01 T03470144  RH  031%=      5-min Rain = 0
KMES 210035Z 15006KT 35/14 A2996 RMK A01 T03460144  RH  031%=      5-min Rain = 0
KMES 210040Z 15006KT 35/14 A2996 RMK A01 T03460143  RH  031%=      5-min Rain = 0
KMES 210045Z 15006KT 35/14 A2996 RMK A01 T03460144  RH  031%=      5-min Rain = 0
KMES 210050Z 14005KT 34/15 A2996 RMK A01 T03440146  RH  032%=      5-min Rain = 0
KMES 210055Z 13005KT 34/15 A2996 RMK A01 T03420151  RH  033%=      5-min Rain = 0
KMES 210100Z 13005KT 34/15 A2996 RMK A01 T03390153  RH  034%=      5-min Rain = 0
KMES 210105Z 12005KT 34/16 A2997 RMK A01 T03360155  RH  035%=      5-min Rain = 0
KMES 210110Z 12005KT 33/16 A2997 RMK A01 T03330155  RH  036%=      5-min Rain = 0
KMES 210115Z 12005KT 33/16 A2997 RMK A01 T03320155  RH  036%=      5-min Rain = 0
KMES 210120Z 12006KT 33/16 A2997 RMK A01 T03310156  RH  037%=      5-min Rain = 0
KMES 210125Z 13006KT 33/16 A2997 RMK A01 T03290159  RH  038%=      5-min Rain = 0
KMES 210130Z 13006KT 33/16 A2997 RMK A01 T03280159  RH  038%=      5-min Rain = 0
KMES 210135Z 13007KT 33/16 A2997 RMK A01 T03280157  RH  038%=      5-min Rain = 0
KMES 210140Z 13008KT 33/15 A2997 RMK A01 T03290152  RH  036%=      5-min Rain = 0
KMES 210145Z 14008KT 33/15 A2997 RMK A01 T03290150  RH  036%=      5-min Rain = 0
KMES 210150Z 14007KT 33/15 A2997 RMK A01 T03290150  RH  036%=      5-min Rain = 0
KMES 210155Z 14006KT 33/15 A2998 RMK A01 T03280150  RH  036%=      5-min Rain = 0
KMES 210200Z 15005KT 33/15 A2998 RMK A01 T03260152  RH  037%=      5-min Rain = 0
KMES 210205Z 16004KT 32/16 A2998 RMK A01 T03240155  RH  038%=      5-min Rain = 0
KMES 210210Z 15004KT 32/16 A2999 RMK A01 T03210156  RH  039%=      5-min Rain = 0
KMES 210215Z 15004KT 32/16 A2999 RMK A01 T03200158  RH  040%=      5-min Rain = 0
KMES 210220Z 15003KT 32/16 A2999 RMK A01 T03160159  RH  040%=      5-min Rain = 0
KMES 210225Z 15003KT 31/16 A2999 RMK A01 T03140159  RH  041%=      5-min Rain = 0
KMES 210230Z 15004KT 31/16 A2999 RMK A01 T03120159  RH  042%=      5-min Rain = 0
KMES 210235Z 14004KT 31/16 A2999 RMK A01 T03100161  RH  043%=      5-min Rain = 0
KMES 210240Z 13002KT 31/16 A2999 RMK A01 T03050161  RH  044%=      5-min Rain = 0
KMES 210245Z 12001KT 30/16 A30 RMK A01 T03020163  RH  045%=      5-min Rain = 0
KMES 210250Z 12001KT 30/16 A30 RMK A01 T02990163  RH  046%=      5-min Rain = 0
KMES 210255Z 13002KT 30/16 A30 RMK A01 T02970163  RH  047%=      5-min Rain = 0
KMES 210300Z 13002KT 30/16 A3001 RMK A01 T02950164  RH  047%=      5-min Rain = 0
KMES 210305Z 13003KT 29/17 A3001 RMK A01 T02930165  RH  048%=      5-min Rain = 0
KMES 210310Z 14003KT 29/17 A3001 RMK A01 T02900167  RH  050%=      5-min Rain = 0
KMES 210315Z 15003KT 29/17 A3001 RMK A01 T02900165  RH  049%=      5-min Rain = 0
KMES 210320Z 15003KT 29/16 A3001 RMK A01 T02910162  RH  048%=      5-min Rain = 0
KMES 210325Z 14003KT 29/16 A3001 RMK A01 T02910164  RH  049%=      5-min Rain = 0
KMES 210330Z 15002KT 29/16 A3001 RMK A01 T02880163  RH  049%=      5-min Rain = 0
KMES 210335Z 16002KT 29/16 A3001 RMK A01 T02870161  RH  049%=      5-min Rain = 0
KMES 210340Z 15003KT 29/16 A3002 RMK A01 T02880156  RH  047%=      5-min Rain = 0
KMES 210345Z 14004KT 29/16 A3002 RMK A01 T02890156  RH  047%=      5-min Rain = 0
KMES 210350Z 14005KT 29/16 A3002 RMK A01 T02870159  RH  048%=      5-min Rain = 0
KMES 210355Z 14005KT 29/16 A3002 RMK A01 T02850157  RH  048%=      5-min Rain = 0
KMES 210400Z 14005KT 29/16 A3002 RMK A01 T02850157  RH  048%=      5-min Rain = 0
KMES 210405Z 14005KT 29/16 A3002 RMK A01 T02850155  RH  048%=      5-min Rain = 0
KMES 210410Z 15005KT 29/15 A3002 RMK A01 T02860154  RH  047%=      5-min Rain = 0
KMES 210415Z 15005KT 29/15 A3002 RMK A01 T02880154  RH  046%=      5-min Rain = 0
KMES 210420Z 15005KT 29/15 A3002 RMK A01 T02870154  RH  046%=      5-min Rain = 0
KMES 210425Z 14006KT 29/15 A3002 RMK A01 T02870154  RH  047%=      5-min Rain = 0
KMES 210430Z 14005KT 29/16 A3002 RMK A01 T02870156  RH  047%=      5-min Rain = 0
KMES 210435Z 13005KT 29/16 A3002 RMK A01 T02850157  RH  048%=      5-min Rain = 0
KMES 210440Z 13005KT 28/16 A3002 RMK A01 T02840158  RH  049%=      5-min Rain = 0
KMES 210445Z 13004KT 28/16 A3002 RMK A01 T02830159  RH  049%=      5-min Rain = 0
KMES 210450Z 14004KT 28/16 A3002 RMK A01 T02810161  RH  050%=      5-min Rain = 0
KMES 210455Z 14004KT 28/16 A3002 RMK A01 T02800161  RH  051%=      5-min Rain = 0

Page generated in 0.0104 seconds.